createdAt,value
2023-10-09T00:06:18.045Z,6.07
2023-10-09T00:13:31.595Z,5.57
2023-10-09T00:20:40.597Z,5.18
2023-10-09T00:27:43.663Z,8.85
2023-10-09T00:34:45.420Z,7.07
2023-10-09T00:41:47.342Z,6.75
2023-10-09T00:48:49.649Z,5.15
2023-10-09T00:55:56.838Z,7.13
2023-10-09T01:03:23.088Z,7.07
2023-10-09T01:10:26.008Z,6.18
2023-10-09T01:17:36.747Z,6.63
2023-10-09T01:24:40.058Z,6.05
2023-10-09T01:31:47.829Z,7.03
2023-10-09T01:38:51.449Z,5.68
2023-10-09T01:45:53.240Z,5.50
2023-10-09T01:52:54.988Z,8.07
2023-10-09T01:59:58.892Z,6.57
2023-10-09T02:07:00.647Z,6.30
2023-10-09T02:14:03.062Z,7.10
2023-10-09T02:21:04.512Z,5.97
2023-10-09T02:28:07.047Z,6.93
2023-10-09T02:35:29.317Z,6.53
2023-10-09T02:42:31.898Z,6.80
2023-10-09T02:49:35.172Z,7.45
2023-10-09T02:56:48.631Z,6.90
2023-10-09T03:03:51.188Z,6.45
2023-10-09T03:10:52.889Z,10.93
2023-10-09T03:17:54.563Z,9.07
2023-10-09T03:24:56.693Z,7.75
2023-10-09T03:31:58.545Z,8.25
2023-10-09T03:39:00.824Z,8.93
2023-10-09T03:46:04.579Z,8.30
2023-10-09T03:53:08.380Z,7.25
2023-10-09T04:00:17.147Z,9.15
2023-10-09T04:07:18.818Z,8.30
2023-10-09T04:14:27.129Z,7.05
2023-10-09T04:21:38.065Z,7.47
2023-10-09T04:28:43.085Z,9.60
2023-10-09T04:36:04.626Z,11.20
2023-10-09T04:43:10.807Z,8.32
2023-10-09T04:50:13.010Z,8.13
2023-10-09T04:57:19.048Z,9.25
2023-10-09T05:04:38.896Z,7.43
2023-10-09T05:11:52.730Z,8.37
2023-10-09T05:18:58.806Z,9.63
2023-10-09T05:26:20.777Z,8.73
2023-10-09T05:33:40.544Z,8.98
2023-10-09T05:40:46.575Z,9.60
2023-10-09T05:47:58.958Z,8.40
2023-10-09T05:55:19.165Z,11.73
2023-10-09T06:02:45.572Z,8.23
2023-10-09T06:09:58.825Z,8.77
2023-10-09T06:17:23.478Z,11.50
2023-10-09T06:24:25.178Z,10.40
2023-10-09T06:31:49.550Z,7.60
2023-10-09T06:39:14.100Z,7.95
2023-10-09T06:46:28.072Z,8.35
2023-10-09T06:53:49.827Z,6.40
2023-10-09T07:00:54.292Z,6.75
2023-10-09T07:07:56.956Z,6.38
2023-10-09T07:15:24.669Z,9.88
2023-10-09T07:22:30.701Z,8.27
2023-10-09T07:29:44.216Z,6.63
2023-10-09T07:36:49.418Z,7.93
2023-10-09T07:43:51.959Z,9.15
2023-10-09T07:50:58.480Z,9.90
2023-10-09T07:58:11.850Z,9.52
2023-10-09T08:05:23.854Z,10.65
2023-10-09T08:13:00.770Z,7.93
2023-10-09T08:20:12.611Z,9.15
2023-10-09T08:27:32.670Z,10.63
2023-10-09T08:41:54.390Z,7.83
2023-10-09T08:49:06.153Z,6.63
2023-10-09T08:56:08.958Z,9.13
2023-10-09T09:03:10.847Z,7.47
2023-10-09T09:10:18.743Z,7.57
2023-10-09T09:17:24.845Z,8.45
2023-10-09T09:24:26.594Z,8.95
2023-10-09T09:31:28.443Z,9.98
2023-10-09T09:38:36.547Z,9.02
2023-10-09T09:45:38.837Z,10.15
2023-10-09T09:52:40.991Z,8.82
2023-10-09T09:59:51.134Z,9.68
2023-10-09T10:06:52.985Z,9.25
2023-10-09T10:13:57.642Z,8.40
2023-10-09T10:21:18.347Z,9.27
2023-10-09T10:28:30.431Z,7.97
2023-10-09T10:35:41.100Z,8.40
2023-10-09T10:43:07.007Z,6.38
2023-10-09T10:50:35.390Z,8.68
2023-10-09T10:57:55.284Z,8.00
2023-10-09T11:04:57.508Z,8.63
2023-10-09T11:12:22.652Z,7.53
2023-10-09T11:19:33.275Z,9.50
2023-10-09T11:26:41.379Z,8.73
2023-10-09T11:33:47.610Z,7.80
2023-10-09T11:40:55.251Z,8.57
2023-10-09T11:47:59.108Z,10.02
2023-10-09T11:55:00.873Z,9.05
2023-10-09T12:02:06.484Z,10.15
2023-10-09T12:09:17.721Z,10.52
2023-10-09T12:16:19.482Z,10.18
2023-10-09T12:23:22.441Z,11.00
2023-10-09T12:30:27.960Z,11.25
2023-10-09T12:37:32.420Z,8.57
2023-10-09T12:44:35.479Z,9.02
2023-10-09T12:51:37.367Z,9.95
2023-10-09T12:58:42.699Z,10.95
2023-10-09T13:05:53.065Z,11.48
2023-10-09T13:12:57.507Z,12.67
2023-10-09T13:19:59.170Z,10.68
2023-10-09T13:27:00.851Z,10.90
2023-10-09T13:34:04.582Z,10.85
2023-10-09T13:41:08.415Z,11.30
2023-10-09T13:48:13.604Z,12.50
2023-10-09T13:55:18.416Z,10.18
2023-10-09T14:02:22.353Z,11.57
2023-10-09T14:09:39.044Z,10.63
2023-10-09T14:16:44.331Z,11.88
2023-10-09T14:23:48.114Z,12.02
2023-10-09T14:30:57.727Z,11.95
2023-10-09T14:38:02.368Z,9.65
2023-10-09T14:45:09.280Z,12.52
2023-10-09T14:52:11.436Z,11.13
2023-10-09T14:59:13.242Z,12.23
2023-10-09T15:06:16.034Z,11.63
2023-10-09T15:13:17.673Z,12.85
2023-10-09T15:20:19.472Z,11.85
2023-10-09T15:27:21.128Z,11.35
2023-10-09T15:34:23.013Z,14.25
2023-10-09T15:41:24.658Z,11.48
2023-10-09T15:48:26.335Z,13.25
2023-10-09T15:55:28.065Z,10.07
2023-10-09T16:02:29.751Z,11.40
2023-10-09T16:09:35.982Z,10.48
2023-10-09T16:16:42.819Z,11.07
2023-10-09T16:23:44.841Z,8.98
2023-10-09T16:30:46.586Z,11.75
2023-10-09T16:37:50.597Z,11.27
2023-10-09T16:44:52.308Z,13.40
2023-10-09T16:51:56.249Z,10.48
2023-10-09T16:58:58.065Z,9.65
2023-10-09T17:06:05.140Z,15.77
2023-10-09T17:13:09.101Z,10.93
2023-10-09T17:20:11.846Z,12.57
2023-10-09T17:27:18.800Z,10.95
2023-10-09T17:34:24.041Z,11.65
2023-10-09T17:41:25.758Z,11.30
2023-10-09T17:48:27.595Z,10.88
2023-10-09T17:55:30.834Z,10.55
2023-10-09T18:02:32.956Z,10.98
2023-10-09T18:09:34.742Z,11.65
2023-10-09T18:16:38.712Z,12.73
2023-10-09T18:23:46.246Z,13.32
2023-10-09T18:30:50.464Z,14.10
2023-10-09T18:37:57.971Z,11.48
2023-10-09T18:44:59.740Z,12.45
2023-10-09T18:52:01.601Z,13.90
2023-10-09T18:59:09.821Z,12.38
2023-10-09T19:06:13.680Z,14.25
2023-10-09T19:13:15.511Z,11.60
2023-10-09T19:20:18.282Z,12.55
2023-10-09T19:27:26.509Z,12.93
2023-10-09T19:34:28.106Z,13.75
2023-10-09T19:41:32.320Z,13.70
2023-10-09T19:48:36.457Z,12.13
2023-10-09T19:55:41.427Z,14.23
2023-10-09T20:02:43.356Z,16.73
2023-10-09T20:09:46.744Z,14.55
2023-10-09T20:16:49.426Z,13.20
2023-10-09T20:23:51.738Z,13.25
2023-10-09T20:30:54.165Z,12.30
2023-10-09T20:37:56.892Z,14.95
2023-10-09T20:44:59.447Z,15.52
2023-10-09T20:52:01.634Z,15.60
2023-10-09T20:59:03.479Z,17.42
2023-10-09T21:06:08.514Z,16.40
2023-10-09T21:13:10.256Z,16.20
2023-10-09T21:20:19.138Z,21.83
2023-10-09T21:27:20.814Z,15.43
2023-10-09T21:34:23.006Z,16.48
2023-10-09T21:41:27.192Z,15.93
2023-10-09T21:48:29.018Z,14.70
2023-10-09T21:55:32.626Z,20.10
2023-10-09T22:02:34.464Z,21.00
2023-10-09T22:09:36.695Z,18.90
2023-10-09T22:16:41.323Z,19.10
2023-10-09T22:23:54.025Z,18.50
2023-10-09T22:30:56.952Z,15.50
2023-10-09T22:37:59.499Z,15.68
2023-10-09T22:45:01.437Z,17.30
2023-10-09T22:52:04.444Z,16.25
2023-10-09T22:59:21.519Z,17.35
2023-10-09T23:06:34.650Z,16.90
2023-10-09T23:13:36.800Z,15.52
2023-10-09T23:20:50.400Z,17.40
2023-10-09T23:27:51.987Z,17.77
2023-10-09T23:34:54.015Z,15.07
2023-10-09T23:42:03.274Z,19.02
2023-10-09T23:49:08.365Z,17.35
2023-10-09T23:56:43.008Z,18.20
